Monday, February 19, 2018, 10:00 AM GMT
Back to Local

CWTY, Trois Rivieres

Location: , , Canada Lat: 46.35
Local Time: 10:00 AM GMT (10:00 GMT) Lon: -72.517
Time Zone: GMT Elev: 19 ft

Show me the last for .
Show Coded

Time T Td Feel RH Dir Speed Gust Alt SLP Vis Weather Sky Remarks
2018-02-19 09:00 28 22 22 78 220° 5 - - 30.37 0 None
2018-02-19 08:00 28 21 21 75 210° 7 - - 30.36 0 None
2018-02-19 07:00 27 21 19 76 190° 8 - - 30.36 0 None
2018-02-19 06:00 27 22 19 82 220° 7 - - 30.37 0 None
2018-02-19 05:00 26 21 20 82 190° 5 - - 30.37 0 None
2018-02-19 04:00 26 22 21 82 210° 5 - - 30.38 0 None
2018-02-19 03:00 26 22 19 82 200° 7 - - 30.38 0 None
2018-02-19 02:00 27 22 20 82 210° 7 - - 30.38 0 None
2018-02-19 01:00 29 24 21 82 210° 8 - - 30.35 0 None
2018-02-19 00:00 29 26 22 86 210° 8 - - 30.34 0 None
2018-02-18 23:00 30 24 22 80 200° 8 - - 30.32 0 None
2018-02-18 22:00 33 25 25 73 200° 9 - - 30.29 0 None
2018-02-18 21:00 31 26 22 78 210° 13 - - 30.26 0 None
2018-02-18 20:00 32 25 23 75 210° 12 - - 30.21 0 None
2018-02-18 19:00 31 23 21 71 200° 16 - - 30.20 0 Peak wind: 19 mph (17 kts) from 200° at 27 min
2018-02-18 18:00 31 23 20 73 220° 15 - - 30.20 0 None
2018-02-18 17:00 28 22 18 75 230° 13 - - 30.19 0 Peak wind: 19 mph (17 kts) from 240° at 32 min
2018-02-18 16:00 26 20 15 77 230° 12 - - 30.17 0 None
2018-02-18 15:00 24 19 12 80 210° 13 - - 30.14 0 None
2018-02-18 14:00 23 17 12 77 220° 10 - - 30.11 0 None
2018-02-18 13:00 21 15 12 78 220° 8 - - 30.06 0 None
2018-02-18 12:00 24 18 14 77 210° 9 - - 30.03 0 None
2018-02-18 11:00 23 19 14 83 220° 8 - - 29.99 0 None

Support USWX by starting your Amazon purchase here.